Latest Coastal Weather Observations for Broome Port

IDW60701

Issued at 7:33 pm WST Monday 11 December 2017 (issued every 10 minutes, with the page automatically refreshed every 10 minutes)

About coastal observations | Map of coastal stations | Coastal observations for WA | Marine services | Other Formats
Station Details ID: 003102 Name: BROOME NTC AWS Lat: -18.00 Lon: 122.22 Height: 0.0 m
Data from the previous 72 hours. | See also: Recent months for locations in Western Australia
Date/Time
WST
Temp
°C
Wind Pressure Rain since
9am
mm
Weather Cloud Vis
km
Sea
Height
m
Swell
Dir  Spd
kts
Gust
kts
hPa Trend Height
m
Period
s
Dir
11/07:30pm 30.5 WNW 8 11 1009.3 - - - - - - - - -
11/07:00pm 30.6 WNW 9 11 1008.7 - - - - - - - - -
11/06:30pm 30.5 W 11 13 1008.3 - - - - - - - - -
11/06:00pm 30.6 WNW 11 14 1007.9 - - - - - - - - -
11/05:30pm 30.4 W 11 14 1007.5 - - - - - - - - -
11/05:00pm 30.3 W 12 14 1007.1 - - - - - - - - -
11/04:30pm 30.0 NNW 7 8 1007.8 - - - - - - - - -
11/04:00pm 29.5 NE 14 18 1008.2 - - - - - - - - -
11/03:42pm 29.1 N 18 27 1008.7 - - - - - - - - -
11/03:36pm 31.0 NNW 14 27 1008.6 - - - - - - - - -
11/03:30pm 30.9 WNW 14 18 1008.2 - - - - - - - - -
11/03:00pm 31.0 W 17 19 1007.2 - - - - - - - - -
11/02:30pm 31.1 W 14 17 1007.8 - - - - - - - - -
11/02:00pm 30.9 WSW 15 17 1007.6 - - - - - - - - -
11/01:30pm 31.0 WSW 15 17 1007.7 - - - - - - - - -
11/01:00pm 31.3 WSW 12 15 1008.4 - - - - - - - - -
11/12:30pm 31.4 WSW 12 13 1008.7 - - - - - - - - -
11/12:00pm 31.9 WSW 6 8 1009.1 - - - - - - - - -
11/11:30am 31.4 SW 6 7 1009.4 - - - - - - - - -
11/11:00am 31.5 SSW 3 5 1010.0 - - - - - - - - -
11/10:30am 31.4 SW 4 5 1010.7 - - - - - - - - -
11/10:00am 31.0 SW 3 5 1011.5 - - - - - - - - -
11/09:30am 30.1 SW 4 5 1011.8 - - - - - - - - -
11/09:00am 29.7 SSE 8 11 1012.0 - - - - - - - - -
11/08:30am 29.4 SSE 9 12 1011.9 - - - - - - - - -
11/08:00am 29.3 S 8 10 1011.5 - - - - - - - - -
11/07:30am 29.6 SW 9 10 1010.9 - - - - - - - - -
11/07:00am 29.6 SSW 8 9 1010.9 - - - - - - - - -
11/06:30am 29.5 SSW 8 10 1010.5 - - - - - - - - -
11/06:00am 29.4 SW 8 10 1010.1 - - - - - - - - -
11/05:30am 29.4 SW 9 12 1009.7 - - - - - - - - -
11/05:00am 29.3 SW 8 10 1009.5 - - - - - - - - -
11/04:30am 29.7 SW 7 9 1009.2 - - - - - - - - -
11/04:00am 29.5 SW 8 11 1008.8 - - - - - - - - -
11/03:30am 29.8 WSW 7 8 1008.8 - - - - - - - - -
11/03:00am 29.8 WSW 7 9 1008.7 - - - - - - - - -
11/02:30am 29.8 WSW 7 9 1008.5 - - - - - - - - -
11/02:00am 29.9 WSW 7 9 1008.5 - - - - - - - - -
11/01:30am 29.7 WSW 8 10 1008.3 - - - - - - - - -
11/01:00am 29.7 WSW 8 9 1008.3 - - - - - - - - -
11/12:30am 29.9 WSW 8 10 1008.6 - - - - - - - - -
11/12:00am 30.0 WSW 8 9 1009.0 - - - - - - - - -
 
Date/Time
WST
Temp
°C
Wind Pressure Rain since
9am
mm
Weather Cloud Vis
km
Sea
Height
m
Swell
Dir  Spd
kts
Gust
kts
hPa Trend Height
m
Period
s
Dir
10/11:30pm 29.9 WSW 6 8 1009.5 - - - - - - - - -
10/11:00pm 30.1 W 8 10 1009.9 - - - - - - - - -
10/10:30pm 30.0 W 7 9 1010.3 - - - - - - - - -
10/10:00pm 30.1 W 7 9 1010.5 - - - - - - - - -
10/09:30pm 30.1 W 7 8 1010.6 - - - - - - - - -
10/09:00pm 30.1 W 8 10 1010.2 - - - - - - - - -
10/08:30pm 30.0 WNW 7 10 1010.4 - - - - - - - - -
10/08:00pm 30.1 WNW 8 9 1010.2 - - - - - - - - -
10/07:30pm 30.2 WNW 8 10 1009.8 - - - - - - - - -
10/07:00pm 30.2 WNW 9 11 1009.2 - - - - - - - - -
10/06:30pm 30.4 WNW 11 13 1008.7 - - - - - - - - -
10/06:00pm 30.4 WNW 12 15 1008.1 - - - - - - - - -
10/05:30pm 30.6 NW 14 17 1007.8 - - - - - - - - -
10/05:00pm 30.6 NW 15 19 1007.4 - - - - - - - - -
10/04:30pm 30.7 NW 17 20 1007.3 - - - - - - - - -
10/04:00pm 31.2 NW 18 20 1007.3 - - - - - - - - -
10/03:30pm 32.6 NW 16 18 1007.2 - - - - - - - - -
10/03:00pm 33.8 WNW 13 15 1007.1 - - - - - - - - -
10/02:30pm 33.9 WNW 10 11 1007.2 - - - - - - - - -
10/02:00pm 33.0 W 7 11 1007.5 - - - - - - - - -
10/01:30pm 33.5 WSW 5 6 1007.9 - - - - - - - - -
10/01:00pm 31.7 SW 4 5 1008.2 - - - - - - - - -
10/12:30pm 31.4 CALM 0 1 1008.5 - - - - - - - - -
10/12:00pm 29.9 ENE 2 3 1008.9 - - - - - - - - -
10/11:30am 29.0 SSE 1 3 1009.1 - - - - - - - - -
10/11:00am 28.1 SSE 2 4 1009.5 - - - - - - - - -
10/10:30am 27.3 ESE 6 8 1009.8 - - - - - - - - -
10/10:00am 26.8 ESE 8 10 1009.9 - - - - - - - - -
10/09:30am 25.8 ESE 11 13 1010.1 - - - - - - - - -
10/09:00am 25.3 ESE 10 12 1010.3 - - - - - - - - -
10/08:30am 25.1 ESE 14 17 1010.1 - - - - - - - - -
10/08:00am 25.2 E 16 19 1010.2 - - - - - - - - -
10/07:30am 24.7 E 14 18 1010.2 - - - - - - - - -
10/07:00am 24.8 E 21 25 1010.3 - - - - - - - - -
10/06:30am 24.5 E 28 33 1010.5 - - - - - - - - -
10/06:00am 25.2 E 25 30 1010.7 - - - - - - - - -
10/05:30am 26.5 E 23 28 1010.3 - - - - - - - - -
10/05:22am 26.3 E 27 34 1010.2 - - - - - - - - -
10/05:00am 26.6 ESE 35 43 1009.9 - - - - - - - - -
10/04:37am 28.1 ESE 20 40 1009.4 - - - - - - - - -
10/04:35am 29.3 SE 16 28 1009.5 - - - - - - - - -
10/04:30am 29.3 SE 11 15 1009.0 - - - - - - - - -
10/04:00am 29.1 SSW 11 12 1007.6 - - - - - - - - -
10/03:30am 29.4 S 16 18 1007.9 - - - - - - - - -
10/03:00am 29.9 SW 12 14 1008.0 - - - - - - - - -
10/02:30am 29.7 SW 12 15 1007.9 - - - - - - - - -
10/02:00am 29.8 WSW 13 15 1007.6 - - - - - - - - -
10/01:30am 29.6 W 12 15 1007.2 - - - - - - - - -
10/01:00am 29.5 WNW 14 18 1006.9 - - - - - - - - -
10/12:30am 29.7 NW 13 16 1007.5 - - - - - - - - -
10/12:00am 29.7 NW 13 16 1007.6 - - - - - - - - -
 
Date/Time
WST
Temp
°C
Wind Pressure Rain since
9am
mm
Weather Cloud Vis
km
Sea
Height
m
Swell
Dir  Spd
kts
Gust
kts
hPa Trend Height
m
Period
s
Dir
09/11:30pm 29.7 NW 11 15 1008.0 - - - - - - - - -
09/11:00pm 29.7 NW 13 15 1007.8 - - - - - - - - -
09/10:30pm 29.8 NW 12 15 1007.8 - - - - - - - - -
09/10:00pm 29.9 NW 14 17 1007.7 - - - - - - - - -
09/09:30pm 30.0 WNW 12 14 1007.7 - - - - - - - - -
09/09:00pm 30.0 WNW 10 13 1007.4 - - - - - - - - -
09/08:30pm 30.0 WNW 12 14 1007.1 - - - - - - - - -
09/08:00pm 30.0 NW 10 12 1007.2 - - - - - - - - -
09/07:30pm 29.9 WNW 11 13 1006.5 - - - - - - - - -
09/07:00pm 29.9 NW 8 11 1006.4 - - - - - - - - -
09/06:30pm 29.9 NNW 11 13 1006.1 - - - - - - - - -
09/06:00pm 30.1 WNW 12 15 1005.8 - - - - - - - - -
09/05:30pm 30.1 WNW 14 18 1004.9 - - - - - - - - -
09/05:00pm 30.2 WNW 15 19 1005.0 - - - - - - - - -
09/04:30pm 30.3 WNW 16 20 1004.4 - - - - - - - - -
09/04:00pm 30.3 WNW 17 20 1004.2 - - - - - - - - -
09/03:30pm 30.2 WNW 17 20 1004.3 - - - - - - - - -
09/03:00pm 30.2 WNW 17 20 1004.5 - - - - - - - - -
09/02:30pm 30.6 WNW 17 21 1004.7 - - - - - - - - -
09/02:00pm 30.2 WNW 17 20 1004.9 - - - - - - - - -
09/01:30pm 30.2 WNW 16 19 1005.4 - - - - - - - - -
09/01:00pm 29.9 WNW 14 17 1006.1 - - - - - - - - -
09/12:30pm 30.3 WNW 14 17 1006.4 - - - - - - - - -
09/12:00pm 30.1 WNW 15 17 1006.6 - - - - - - - - -
09/11:30am 30.0 WNW 14 16 1006.9 - - - - - - - - -
09/11:00am 30.1 WNW 13 17 1007.1 - - - - - - - - -
09/10:30am 30.3 W 12 16 1007.5 - - - - - - - - -
09/10:00am 30.0 W 12 16 1007.8 - - - - - - - - -
09/09:30am 30.0 W 12 15 1007.8 - - - - - - - - -
09/09:00am 29.9 W 11 14 1008.3 - - - - - - - - -
09/08:30am 29.8 WSW 11 13 1008.4 - - - - - - - - -
09/08:00am 29.8 WSW 12 14 1008.4 - - - - - - - - -
09/07:30am 29.8 WSW 11 13 1008.2 - - - - - - - - -
09/07:00am 29.8 WSW 12 14 1008.1 - - - - - - - - -
09/06:30am 29.6 WSW 12 14 1007.9 - - - - - - - - -
09/06:00am 29.6 WSW 13 15 1007.7 - - - - - - - - -
09/05:30am 29.5 WSW 13 16 1007.2 - - - - - - - - -
09/05:00am 29.5 WSW 15 17 1006.7 - - - - - - - - -
09/04:30am 29.6 WSW 14 17 1006.3 - - - - - - - - -
09/04:00am 29.6 WSW 14 17 1006.3 - - - - - - - - -
09/03:30am 29.6 WSW 14 17 1006.2 - - - - - - - - -
09/03:00am 29.5 WSW 14 17 1006.1 - - - - - - - - -
09/02:30am 29.6 WSW 14 17 1005.9 - - - - - - - - -
09/02:00am 29.7 WSW 14 18 1005.7 - - - - - - - - -
09/01:30am 29.7 W 12 15 1005.9 - - - - - - - - -
09/01:00am 29.5 WSW 13 15 1005.8 - - - - - - - - -
09/12:30am 29.5 W 11 14 1005.9 - - - - - - - - -
09/12:00am 29.6 W 11 14 1006.1 - - - - - - - - -
 
Date/Time
WST
Temp
°C
Wind Pressure Rain since
9am
mm
Weather Cloud Vis
km
Sea
Height
m
Swell
Dir  Spd
kts
Gust
kts
hPa Trend Height
m
Period
s
Dir
08/11:30pm 29.6 W 10 14 1006.3 - - - - - - - - -
08/11:00pm 29.8 W 11 15 1006.7 - - - - - - - - -
08/10:30pm 29.9 W 11 14 1006.7 - - - - - - - - -
08/10:00pm 29.9 WNW 11 13 1007.0 - - - - - - - - -
08/09:30pm 29.9 WNW 10 12 1006.8 - - - - - - - - -
08/09:00pm 29.9 WNW 9 11 1006.7 - - - - - - - - -
08/08:30pm 29.9 WNW 10 12 1006.4 - - - - - - - - -
08/08:00pm 30.0 WNW 9 11 1006.4 - - - - - - - - -

Other Formats:

Comma delimited format used in spreadsheet applications
http://www.bom.gov.au/fwo/IDW60701/IDW60701.95202.axf

JavaScript Object Notation format (JSON) in row-major order
http://www.bom.gov.au/fwo/IDW60701/IDW60701.95202.json